Christina Belcher — WDD3948 — position and weather

sailwx.info

Track history (hours):
 
Tides and Currents Weather Stations Pressure Air Temp Water Temp Dewpoint Dewpoint Depression Visibility Wind Speed Wind Dir Waves Ship Positions

Christina Belcher

Owner: Florida Marine, LLC, Mandeville, LA. More information available from US FCC via Universal Licensing System and Coast Guard Vessel Documentation Center.

Last reported at 2018-May-24 01:10 UTC. Time now 2018-May-28 09:33 UTC.
Position N 29°51' W 091°55'.

Length 28 m; draft 2.9 m.

Type: Towing. MMSI: 367138450.

Date/timePositionNaut miles runAvg speedWind from/ knotsBaromVisibWave heightAir tempDewpointWater temp
2018-May-24 01:10N 29°51' W 091°55'1 5.3
2018-May-24 01:00N 29°51' W 091°56'3 5.2
2018-May-24 00:29N 29°50' W 091°59'3 5.7
2018-May-24 00:00N 29°49' W 092°02'3 5.4
2018-May-23 23:30N 29°48' W 092°05'3 5.4
2018-May-23 23:00N 29°47' W 092°08'3 5.2
2018-May-23 22:30N 29°47' W 092°11'1 2.8
2018-May-23 22:00N 29°47' W 092°12'1 1.9
2018-May-23 21:30N 29°48' W 092°13'2 4.6
2018-May-23 21:00N 29°48' W 092°16'2 4.4
2018-May-23 20:30N 29°50' W 092°18'2 4.1
2018-May-23 20:00N 29°51' W 092°20'2 3.8
2018-May-23 19:30N 29°52' W 092°22'35 4.5
2018-May-23 11:42N 29°56' W 093°02'2 4.8
2018-May-23 11:19N 29°56' W 093°04'1 4.4
2018-May-23 10:59N 29°56' W 093°06'2 3.8
2018-May-23 10:29N 29°56' W 093°08'2 4.2
2018-May-23 10:00N 29°57' W 093°10'2 3.5
2018-May-23 09:30N 29°58' W 093°11'1 2.2
2018-May-23 09:00N 29°59' W 093°12'2 4.1
2018-May-23 08:30N 30°00' W 093°14'2 3.4
2018-May-23 08:00N 30°02' W 093°15'1 2.8
2018-May-23 07:30N 30°03' W 093°16'1 2.8
2018-May-23 07:00N 30°04' W 093°16'2 3.0
2018-May-23 06:30N 30°05' W 093°18'1 1.0
2018-May-23 06:00N 30°06' W 093°18'0 0.7
2018-May-23 05:30N 30°06' W 093°18'0 0.0
2018-May-23 05:00N 30°06' W 093°18'0 0.0
2018-May-23 04:30N 30°06' W 093°18'0 0.0
2018-May-23 04:00N 30°06' W 093°18'0 0.0
2018-May-23 03:30N 30°06' W 093°18'0 0.0
2018-May-23 03:00N 30°06' W 093°18'0 0.0
2018-May-23 02:30N 30°06' W 093°18'0 0.0
2018-May-23 02:00N 30°06' W 093°18'0 0.0
2018-May-23 01:30N 30°06' W 093°18'0 0.0
2018-May-23 01:00N 30°06' W 093°18'0 0.0
2018-May-23 00:30N 30°06' W 093°18'0 0.0
2018-May-23 00:00N 30°06' W 093°18'0 0.0
2018-May-22 23:30N 30°06' W 093°18'0 0.0
2018-May-22 23:00N 30°06' W 093°18'0 0.0
2018-May-22 22:30N 30°06' W 093°18'0 0.0
2018-May-22 22:00N 30°06' W 093°18'0 0.0
2018-May-22 21:30N 30°06' W 093°18'0 0.0
2018-May-22 21:00N 30°06' W 093°18'0 0.0
2018-May-22 20:30N 30°06' W 093°18'0 0.0
2018-May-22 20:00N 30°06' W 093°18'0 0.0
2018-May-22 19:30N 30°06' W 093°18'0 0.0
2018-May-22 19:00N 30°06' W 093°18'0 0.0
2018-May-22 18:30N 30°06' W 093°18'0 0.0
2018-May-22 18:00N 30°06' W 093°18'0 0.0
2018-May-22 17:30N 30°06' W 093°18'0 0.0
2018-May-22 17:00N 30°06' W 093°18'0 0.0
2018-May-22 16:30N 30°06' W 093°18'1 1.9
2018-May-22 16:00N 30°06' W 093°19'2 3.7
2018-May-22 15:30N 30°04' W 093°21'2 3.8
2018-May-22 15:00N 30°04' W 093°23'2 4.9
2018-May-22 14:30N 30°04' W 093°25'3 5.1
2018-May-22 14:00N 30°04' W 093°28'2 4.9
2018-May-22 13:30N 30°04' W 093°31'2 4.7
2018-May-22 13:00N 30°04' W 093°34'2 4.6
2018-May-22 12:30N 30°04' W 093°37'2 4.8
2018-May-22 12:00N 30°04' W 093°39'2 4.7
2018-May-22 11:30N 30°03' W 093°42'2 4.5
2018-May-22 11:00N 30°02' W 093°44'2 4.9
2018-May-22 10:30N 30°00' W 093°46'2 5.0
2018-May-22 10:00N 29°59' W 093°49'2 4.2
2018-May-22 09:30N 29°58' W 093°51'0 0.0
2018-May-22 09:00N 29°58' W 093°51'0 0.6
2018-May-22 08:30N 29°58' W 093°51'0 0.8
2018-May-22 08:00N 29°58' W 093°52'0 0.0
2018-May-22 07:30N 29°58' W 093°52'0 0.0
2018-May-22 07:00N 29°58' W 093°52'0 0.0
2018-May-22 06:30N 29°58' W 093°52'0 0.0
2018-May-22 06:00N 29°58' W 093°52'0 0.0
2018-May-22 05:30N 29°58' W 093°52'0 0.0
2018-May-22 05:00N 29°58' W 093°52'0 0.0
2018-May-22 04:30N 29°58' W 093°52'0 0.0
2018-May-22 04:00N 29°58' W 093°52'0 0.0
2018-May-22 03:30N 29°58' W 093°52'0 0.0
2018-May-22 03:00N 29°58' W 093°52'0 0.3
2018-May-22 02:31N 29°58' W 093°51'1 1.0
2018-May-22 02:01N 29°58' W 093°51'1 1.0
2018-May-22 01:30N 29°58' W 093°51'0 0.3
2018-May-22 01:00N 29°58' W 093°52'0 0.0
2018-May-22 00:30N 29°58' W 093°52'0 0.0
2018-May-22 00:00N 29°58' W 093°52'0 0.0
2018-May-21 23:30N 29°58' W 093°52'0 0.0
2018-May-21 23:00N 29°58' W 093°52'0 0.0
2018-May-21 22:30N 29°58' W 093°52'0 0.0
2018-May-21 22:00N 29°58' W 093°52'0 0.1
2018-May-21 21:30N 29°58' W 093°52'0 0.0
2018-May-21 21:00N 29°58' W 093°52'0 0.0
2018-May-21 20:30N 29°58' W 093°52'0 0.8
2018-May-21 20:00N 29°59' W 093°52'2 3.1
2018-May-21 19:30N 29°59' W 093°53'2 3.1
2018-May-21 19:00N 29°59' W 093°55'2 3.1
2018-May-21 18:30N 29°60' W 093°57'1 2.7
2018-May-21 18:00N 30°01' W 093°58'1 2.0
2018-May-21 17:30N 30°01' W 093°59'0 0.0
2018-May-21 17:00N 30°01' W 093°59'0 0.0
2018-May-21 16:30N 30°01' W 093°59'0 0.0
2018-May-21 16:00N 30°01' W 093°59'0 0.0
2018-May-21 15:30N 30°01' W 093°59'0 0.0
2018-May-21 15:00N 30°01' W 093°59'0 0.0
2018-May-21 14:30N 30°01' W 093°59'0 0.0
2018-May-21 14:00N 30°01' W 093°59'0 0.0
2018-May-21 13:30N 30°01' W 093°59'0 0.0
2018-May-21 13:00N 30°01' W 093°59'0 0.0
2018-May-21 12:30N 30°01' W 093°59'0 0.0
2018-May-21 12:00N 30°01' W 093°59'0 0.0
2018-May-21 11:30N 30°01' W 093°59'0 0.0
2018-May-21 11:00N 30°01' W 093°59'0 0.0
2018-May-21 10:30N 30°01' W 093°59'0 0.0
2018-May-21 10:00N 30°01' W 093°59'0 0.0
2018-May-21 09:30N 30°01' W 093°59'0 0.0
2018-May-21 09:00N 30°01' W 093°59'0 0.0
2018-May-21 08:30N 30°01' W 093°59'0 0.0
2018-May-21 08:00N 30°01' W 093°59'0 0.0
2018-May-21 07:30N 30°01' W 093°59'0 0.0
2018-May-21 07:00N 30°01' W 093°59'0 0.0
2018-May-21 06:30N 30°01' W 093°59'0 0.0
2018-May-21 06:00N 30°01' W 093°59'0 0.0
2018-May-21 05:30N 30°01' W 093°59'0 0.0
2018-May-21 05:00N 30°01' W 093°59'0 0.0
2018-May-21 04:30N 30°01' W 093°59'0 0.0
2018-May-21 04:00N 30°01' W 093°59'0 0.0
2018-May-21 03:29N 30°01' W 093°59'0 0.0
2018-May-21 03:00N 30°01' W 093°59'0 0.0
2018-May-21 02:30N 30°01' W 093°59'0 0.0
2018-May-21 02:00N 30°01' W 093°59'0 0.0
2018-May-21 01:30N 30°01' W 093°59'0 0.0
2018-May-21 01:00N 30°01' W 093°59'0 0.0
2018-May-21 00:30N 30°01' W 093°59'0 0.0
2018-May-21 00:00N 30°01' W 093°59'0 0.0
2018-May-20 23:30N 30°01' W 093°59'0 0.8
2018-May-20 23:00N 30°01' W 093°59'0 0.3
2018-May-20 22:30N 30°01' W 093°59'0 0.6
2018-May-20 22:00N 30°01' W 093°59'0 0.1
2018-May-20 21:30N 30°01' W 093°59'0 0.0
2018-May-20 21:00N 30°01' W 093°59'0 0.0
2018-May-20 20:30N 30°01' W 093°59'0 0.0
2018-May-20 20:00N 30°01' W 093°59'0 0.0
2018-May-20 19:30N 30°01' W 093°59'0 0.0
2018-May-20 19:00N 30°01' W 093°59'0 0.0
2018-May-20 18:30N 30°01' W 093°59'0 0.0
2018-May-20 18:00N 30°01' W 093°59'0 0.0
2018-May-20 17:30N 30°01' W 093°59'0 0.0
2018-May-20 17:00N 30°01' W 093°59'0 0.0
2018-May-20 16:30N 30°01' W 093°59'0 0.0
2018-May-20 16:00N 30°01' W 093°59'0 0.0
2018-May-20 15:30N 30°01' W 093°59'0 0.0
2018-May-20 15:00N 30°01' W 093°59'0 0.0
2018-May-20 14:30N 30°01' W 093°59'0 0.0
2018-May-20 14:00N 30°01' W 093°59'0 0.0
2018-May-20 13:30N 30°01' W 093°59'0 0.0
2018-May-20 13:00N 30°01' W 093°59'0 0.0
2018-May-20 12:30N 30°01' W 093°59'0 0.0
2018-May-20 12:00N 30°01' W 093°59'0 0.0
2018-May-20 11:30N 30°01' W 093°59'0 0.0
2018-May-20 11:00N 30°01' W 093°59'0 0.0
2018-May-20 10:30N 30°01' W 093°59'0 0.0
2018-May-20 10:00N 30°01' W 093°59'0 0.0
2018-May-20 09:30N 30°01' W 093°59'0 0.0
2018-May-20 09:00N 30°01' W 093°59'0 0.0
2018-May-20 08:30N 30°01' W 093°59'0 0.0
2018-May-20 08:00N 30°01' W 093°59'0 0.0
2018-May-20 07:30N 30°01' W 093°59'0 0.0
2018-May-20 07:00N 30°01' W 093°59'0 0.0
2018-May-20 06:30N 30°01' W 093°59'1 1.6
2018-May-20 06:00N 30°01' W 093°59'3 5.9
2018-May-20 05:30N 29°59' W 093°56'3 6.5
2018-May-20 05:00N 29°59' W 093°52'1 1.7
2018-May-20 04:30N 29°58' W 093°52'0 0.0
2018-May-20 04:00N 29°58' W 093°52'0 0.0
2018-May-20 03:30N 29°58' W 093°52'2 3.4
2018-May-20 03:00N 29°59' W 093°53'4 7.8
2018-May-20 02:30N 30°01' W 093°57'2 3.4
2018-May-20 02:00N 30°01' W 093°59'0 0.1
2018-May-20 01:30N 30°01' W 093°59'1 1.2
2018-May-20 01:00N 30°01' W 093°59'2 3.6
2018-May-20 00:30N 30°00' W 093°57'4 7.2
2018-May-20 00:00N 29°59' W 093°53'3 5.2
2018-May-19 23:30N 29°59' W 093°50'4 7.3
2018-May-19 23:00N 29°60' W 093°46'4 7.1
2018-May-19 22:30N 30°03' W 093°44'3 6.3
2018-May-19 22:00N 30°04' W 093°40'3 6.4
2018-May-19 21:30N 30°04' W 093°37'3 6.5
2018-May-19 20:59N 30°04' W 093°33'3 6.7
2018-May-19 20:30N 30°04' W 093°29'3 6.8
2018-May-19 20:00N 30°04' W 093°25'3 6.9
2018-May-19 19:30N 30°04' W 093°21'3 5.6
2018-May-19 19:00N 30°06' W 093°19'2 3.0
2018-May-19 18:30N 30°05' W 093°18'1 2.5
2018-May-19 18:00N 30°04' W 093°16'0 0.0
2018-May-19 17:30N 30°04' W 093°16'0 0.0
2018-May-19 17:00N 30°04' W 093°16'2 4.7
2018-May-19 16:30N 30°02' W 093°15'3 5.6
2018-May-19 16:00N 29°60' W 093°13'3 6.3
2018-May-19 15:30N 29°58' W 093°11'3 5.8
2018-May-19 15:00N 29°56' W 093°08'3 6.2
2018-May-19 14:29N 29°56' W 093°04'77 2.6
2018-May-18 09:11N 30°31' W 091°45'  
2018-May-14 10:48N 29°60' W 091°28'2 3.7
2018-May-14 10:15N 29°58' W 091°28'1 3.7
2018-May-14 09:59N 29°57' W 091°28'2 3.8
2018-May-14 09:24N 29°55' W 091°27'1 3.6
2018-May-14 09:00N 29°54' W 091°26'  
Track history (hours):
 
Tides and Currents Weather Stations Pressure Air Temp Water Temp Dewpoint Dewpoint Depression Visibility Wind Speed Wind Dir Waves Ship Positions

Christina Belcher

Owner: Florida Marine, LLC, Mandeville, LA. More information available from US FCC via Universal Licensing System and Coast Guard Vessel Documentation Center.

Last reported at 2018-May-24 01:10 UTC. Time now 2018-May-28 09:33 UTC.
Position N 29°51' W 091°55'.

Length 28 m; draft 2.9 m.

Type: Towing. MMSI: 367138450.

Date/timePositionNaut miles runAvg speedWind from/ knotsBaromVisibWave heightAir tempDewpointWater temp
2018-May-24 01:10N 29°51' W 091°55'1 5.3
2018-May-24 01:00N 29°51' W 091°56'3 5.2
2018-May-24 00:29N 29°50' W 091°59'3 5.7
2018-May-24 00:00N 29°49' W 092°02'3 5.4
2018-May-23 23:30N 29°48' W 092°05'3 5.4
2018-May-23 23:00N 29°47' W 092°08'3 5.2
2018-May-23 22:30N 29°47' W 092°11'1 2.8
2018-May-23 22:00N 29°47' W 092°12'1 1.9
2018-May-23 21:30N 29°48' W 092°13'2 4.6
2018-May-23 21:00N 29°48' W 092°16'2 4.4
2018-May-23 20:30N 29°50' W 092°18'2 4.1
2018-May-23 20:00N 29°51' W 092°20'2 3.8
2018-May-23 19:30N 29°52' W 092°22'35 4.5
2018-May-23 11:42N 29°56' W 093°02'2 4.8
2018-May-23 11:19N 29°56' W 093°04'1 4.4
2018-May-23 10:59N 29°56' W 093°06'2 3.8
2018-May-23 10:29N 29°56' W 093°08'2 4.2
2018-May-23 10:00N 29°57' W 093°10'2 3.5
2018-May-23 09:30N 29°58' W 093°11'1 2.2
2018-May-23 09:00N 29°59' W 093°12'2 4.1
2018-May-23 08:30N 30°00' W 093°14'2 3.4
2018-May-23 08:00N 30°02' W 093°15'1 2.8
2018-May-23 07:30N 30°03' W 093°16'1 2.8
2018-May-23 07:00N 30°04' W 093°16'2 3.0
2018-May-23 06:30N 30°05' W 093°18'1 1.0
2018-May-23 06:00N 30°06' W 093°18'0 0.7
2018-May-23 05:30N 30°06' W 093°18'0 0.0
2018-May-23 05:00N 30°06' W 093°18'0 0.0
2018-May-23 04:30N 30°06' W 093°18'0 0.0
2018-May-23 04:00N 30°06' W 093°18'0 0.0
2018-May-23 03:30N 30°06' W 093°18'0 0.0
2018-May-23 03:00N 30°06' W 093°18'0 0.0
2018-May-23 02:30N 30°06' W 093°18'0 0.0
2018-May-23 02:00N 30°06' W 093°18'0 0.0
2018-May-23 01:30N 30°06' W 093°18'0 0.0
2018-May-23 01:00N 30°06' W 093°18'0 0.0
2018-May-23 00:30N 30°06' W 093°18'0 0.0
2018-May-23 00:00N 30°06' W 093°18'0 0.0
2018-May-22 23:30N 30°06' W 093°18'0 0.0
2018-May-22 23:00N 30°06' W 093°18'0 0.0
2018-May-22 22:30N 30°06' W 093°18'0 0.0
2018-May-22 22:00N 30°06' W 093°18'0 0.0
2018-May-22 21:30N 30°06' W 093°18'0 0.0
2018-May-22 21:00N 30°06' W 093°18'0 0.0
2018-May-22 20:30N 30°06' W 093°18'0 0.0
2018-May-22 20:00N 30°06' W 093°18'0 0.0
2018-May-22 19:30N 30°06' W 093°18'0 0.0
2018-May-22 19:00N 30°06' W 093°18'0 0.0
2018-May-22 18:30N 30°06' W 093°18'0 0.0
2018-May-22 18:00N 30°06' W 093°18'0 0.0
2018-May-22 17:30N 30°06' W 093°18'0 0.0
2018-May-22 17:00N 30°06' W 093°18'0 0.0
2018-May-22 16:30N 30°06' W 093°18'1 1.9
2018-May-22 16:00N 30°06' W 093°19'2 3.7
2018-May-22 15:30N 30°04' W 093°21'2 3.8
2018-May-22 15:00N 30°04' W 093°23'2 4.9
2018-May-22 14:30N 30°04' W 093°25'3 5.1
2018-May-22 14:00N 30°04' W 093°28'2 4.9
2018-May-22 13:30N 30°04' W 093°31'2 4.7
2018-May-22 13:00N 30°04' W 093°34'2 4.6
2018-May-22 12:30N 30°04' W 093°37'2 4.8
2018-May-22 12:00N 30°04' W 093°39'2 4.7
2018-May-22 11:30N 30°03' W 093°42'2 4.5
2018-May-22 11:00N 30°02' W 093°44'2 4.9
2018-May-22 10:30N 30°00' W 093°46'2 5.0
2018-May-22 10:00N 29°59' W 093°49'2 4.2
2018-May-22 09:30N 29°58' W 093°51'0 0.0
2018-May-22 09:00N 29°58' W 093°51'0 0.6
2018-May-22 08:30N 29°58' W 093°51'0 0.8
2018-May-22 08:00N 29°58' W 093°52'0 0.0
2018-May-22 07:30N 29°58' W 093°52'0 0.0
2018-May-22 07:00N 29°58' W 093°52'0 0.0
2018-May-22 06:30N 29°58' W 093°52'0 0.0
2018-May-22 06:00N 29°58' W 093°52'0 0.0
2018-May-22 05:30N 29°58' W 093°52'0 0.0
2018-May-22 05:00N 29°58' W 093°52'0 0.0
2018-May-22 04:30N 29°58' W 093°52'0 0.0
2018-May-22 04:00N 29°58' W 093°52'0 0.0
2018-May-22 03:30N 29°58' W 093°52'0 0.0
2018-May-22 03:00N 29°58' W 093°52'0 0.3
2018-May-22 02:31N 29°58' W 093°51'1 1.0
2018-May-22 02:01N 29°58' W 093°51'1 1.0
2018-May-22 01:30N 29°58' W 093°51'0 0.3
2018-May-22 01:00N 29°58' W 093°52'0 0.0
2018-May-22 00:30N 29°58' W 093°52'0 0.0
2018-May-22 00:00N 29°58' W 093°52'0 0.0
2018-May-21 23:30N 29°58' W 093°52'0 0.0
2018-May-21 23:00N 29°58' W 093°52'0 0.0
2018-May-21 22:30N 29°58' W 093°52'0 0.0
2018-May-21 22:00N 29°58' W 093°52'0 0.1
2018-May-21 21:30N 29°58' W 093°52'0 0.0
2018-May-21 21:00N 29°58' W 093°52'0 0.0
2018-May-21 20:30N 29°58' W 093°52'0 0.8
2018-May-21 20:00N 29°59' W 093°52'2 3.1
2018-May-21 19:30N 29°59' W 093°53'2 3.1
2018-May-21 19:00N 29°59' W 093°55'2 3.1
2018-May-21 18:30N 29°60' W 093°57'1 2.7
2018-May-21 18:00N 30°01' W 093°58'1 2.0
2018-May-21 17:30N 30°01' W 093°59'0 0.0
2018-May-21 17:00N 30°01' W 093°59'0 0.0
2018-May-21 16:30N 30°01' W 093°59'0 0.0
2018-May-21 16:00N 30°01' W 093°59'0 0.0
2018-May-21 15:30N 30°01' W 093°59'0 0.0
2018-May-21 15:00N 30°01' W 093°59'0 0.0
2018-May-21 14:30N 30°01' W 093°59'0 0.0
2018-May-21 14:00N 30°01' W 093°59'0 0.0
2018-May-21 13:30N 30°01' W 093°59'0 0.0
2018-May-21 13:00N 30°01' W 093°59'0 0.0
2018-May-21 12:30N 30°01' W 093°59'0 0.0
2018-May-21 12:00N 30°01' W 093°59'0 0.0
2018-May-21 11:30N 30°01' W 093°59'0 0.0
2018-May-21 11:00N 30°01' W 093°59'0 0.0
2018-May-21 10:30N 30°01' W 093°59'0 0.0
2018-May-21 10:00N 30°01' W 093°59'0 0.0
2018-May-21 09:30N 30°01' W 093°59'0 0.0
2018-May-21 09:00N 30°01' W 093°59'0 0.0
2018-May-21 08:30N 30°01' W 093°59'0 0.0
2018-May-21 08:00N 30°01' W 093°59'0 0.0
2018-May-21 07:30N 30°01' W 093°59'0 0.0
2018-May-21 07:00N 30°01' W 093°59'0 0.0
2018-May-21 06:30N 30°01' W 093°59'0 0.0
2018-May-21 06:00N 30°01' W 093°59'0 0.0
2018-May-21 05:30N 30°01' W 093°59'0 0.0
2018-May-21 05:00N 30°01' W 093°59'0 0.0
2018-May-21 04:30N 30°01' W 093°59'0 0.0
2018-May-21 04:00N 30°01' W 093°59'0 0.0
2018-May-21 03:29N 30°01' W 093°59'0 0.0
2018-May-21 03:00N 30°01' W 093°59'0 0.0
2018-May-21 02:30N 30°01' W 093°59'0 0.0
2018-May-21 02:00N 30°01' W 093°59'0 0.0
2018-May-21 01:30N 30°01' W 093°59'0 0.0
2018-May-21 01:00N 30°01' W 093°59'0 0.0
2018-May-21 00:30N 30°01' W 093°59'0 0.0
2018-May-21 00:00N 30°01' W 093°59'0 0.0
2018-May-20 23:30N 30°01' W 093°59'0 0.8
2018-May-20 23:00N 30°01' W 093°59'0 0.3
2018-May-20 22:30N 30°01' W 093°59'0 0.6
2018-May-20 22:00N 30°01' W 093°59'0 0.1
2018-May-20 21:30N 30°01' W 093°59'0 0.0
2018-May-20 21:00N 30°01' W 093°59'0 0.0
2018-May-20 20:30N 30°01' W 093°59'0 0.0
2018-May-20 20:00N 30°01' W 093°59'0 0.0
2018-May-20 19:30N 30°01' W 093°59'0 0.0
2018-May-20 19:00N 30°01' W 093°59'0 0.0
2018-May-20 18:30N 30°01' W 093°59'0 0.0
2018-May-20 18:00N 30°01' W 093°59'0 0.0
2018-May-20 17:30N 30°01' W 093°59'0 0.0
2018-May-20 17:00N 30°01' W 093°59'0 0.0
2018-May-20 16:30N 30°01' W 093°59'0 0.0
2018-May-20 16:00N 30°01' W 093°59'0 0.0
2018-May-20 15:30N 30°01' W 093°59'0 0.0
2018-May-20 15:00N 30°01' W 093°59'0 0.0
2018-May-20 14:30N 30°01' W 093°59'0 0.0
2018-May-20 14:00N 30°01' W 093°59'0 0.0
2018-May-20 13:30N 30°01' W 093°59'0 0.0
2018-May-20 13:00N 30°01' W 093°59'0 0.0
2018-May-20 12:30N 30°01' W 093°59'0 0.0
2018-May-20 12:00N 30°01' W 093°59'0 0.0
2018-May-20 11:30N 30°01' W 093°59'0 0.0
2018-May-20 11:00N 30°01' W 093°59'0 0.0
2018-May-20 10:30N 30°01' W 093°59'0 0.0
2018-May-20 10:00N 30°01' W 093°59'0 0.0
2018-May-20 09:30N 30°01' W 093°59'0 0.0
2018-May-20 09:00N 30°01' W 093°59'0 0.0
2018-May-20 08:30N 30°01' W 093°59'0 0.0
2018-May-20 08:00N 30°01' W 093°59'0 0.0
2018-May-20 07:30N 30°01' W 093°59'0 0.0
2018-May-20 07:00N 30°01' W 093°59'0 0.0
2018-May-20 06:30N 30°01' W 093°59'1 1.6
2018-May-20 06:00N 30°01' W 093°59'3 5.9
2018-May-20 05:30N 29°59' W 093°56'3 6.5
2018-May-20 05:00N 29°59' W 093°52'1 1.7
2018-May-20 04:30N 29°58' W 093°52'0 0.0
2018-May-20 04:00N 29°58' W 093°52'0 0.0
2018-May-20 03:30N 29°58' W 093°52'2 3.4
2018-May-20 03:00N 29°59' W 093°53'4 7.8
2018-May-20 02:30N 30°01' W 093°57'2 3.4
2018-May-20 02:00N 30°01' W 093°59'0 0.1
2018-May-20 01:30N 30°01' W 093°59'1 1.2
2018-May-20 01:00N 30°01' W 093°59'2 3.6
2018-May-20 00:30N 30°00' W 093°57'4 7.2
2018-May-20 00:00N 29°59' W 093°53'3 5.2
2018-May-19 23:30N 29°59' W 093°50'4 7.3
2018-May-19 23:00N 29°60' W 093°46'4 7.1
2018-May-19 22:30N 30°03' W 093°44'3 6.3
2018-May-19 22:00N 30°04' W 093°40'3 6.4
2018-May-19 21:30N 30°04' W 093°37'3 6.5
2018-May-19 20:59N 30°04' W 093°33'3 6.7
2018-May-19 20:30N 30°04' W 093°29'3 6.8
2018-May-19 20:00N 30°04' W 093°25'3 6.9
2018-May-19 19:30N 30°04' W 093°21'3 5.6
2018-May-19 19:00N 30°06' W 093°19'2 3.0
2018-May-19 18:30N 30°05' W 093°18'1 2.5
2018-May-19 18:00N 30°04' W 093°16'0 0.0
2018-May-19 17:30N 30°04' W 093°16'0 0.0
2018-May-19 17:00N 30°04' W 093°16'2 4.7
2018-May-19 16:30N 30°02' W 093°15'3 5.6
2018-May-19 16:00N 29°60' W 093°13'3 6.3
2018-May-19 15:30N 29°58' W 093°11'3 5.8
2018-May-19 15:00N 29°56' W 093°08'3 6.2
2018-May-19 14:29N 29°56' W 093°04'77 2.6
2018-May-18 09:11N 30°31' W 091°45'  
2018-May-14 10:48N 29°60' W 091°28'2 3.7
2018-May-14 10:15N 29°58' W 091°28'1 3.7
2018-May-14 09:59N 29°57' W 091°28'2 3.8
2018-May-14 09:24N 29°55' W 091°27'1 3.6
2018-May-14 09:00N 29°54' W 091°26'  

Dump ship's entire track history